Quincy, IL

12:00 PM CDT on May 06, 2015 (GMT -0500)
Fort Madison Municipal | | Change Station
CLOSE
Current Station
Airport
Location: Fort Madison,
Elevation: 725 ft
Nearby Weather Stations

Elev 725 ft 40.66 °N, 91.33 °W | Updated 25 minutes ago

Partly Cloudy
Partly Cloudy
79 °F
Feels Like 79 °F
N
17
Wind Variable Wind from South
Gusts 22 mph

Today
High -- | Low -- °F
--% Chance of Precip.
Yesterday
High -- | Low -- °F
Precip. -- in
5:59 AM 8:04 PM
Waning Gibbous, 93% visible
Pressure 30.07 in
Visibility 10.0 miles
Clouds Clear
Dew Point 57 °F
Humidity 47%
Rainfall 0.00 in
Snow Depth Not available.
UV 10 out of 12
Pollen 10.50 out of 12
Air Quality Not available.
Flu Activity Local Activity
METAR KFSW 061635Z AUTO 18015G19KT 10SM CLR 26/14 A3007 RMK AO2

More Conditions Fewer Conditions

Pressure 30.07 in
Visibility 10.0 miles
Clouds Clear
Dew Point 57 °F
Humidity 47%
Rainfall 0.00 in
Snow Depth Not available.
UV 10 out of 12
Pollen 10.50 out of 12
Air Quality Not available.
Flu Activity Local Activity
METAR KFSW 061635Z AUTO 18015G19KT 10SM CLR 26/14 A3007 RMK AO2

More Conditions Fewer Conditions

10-Day Weather Forecast

Almanac

Astronomy

May. 06, 2015 Rise Set
Actual Time
Civil Twilight
Nautical Twilight
Astronomical Twilight
Moon
Length of Visible Light
Length of Day
Tomorrow will be .
, % of the Moon is Illuminated

Today's Extremes

State Highs State Lows

Community

WunderPhotos

Upload Photos

1,818,954 photos uploaded!

WunderBlogs® & News

Nearby

Air Quality

  Air Quality AQ Index Pollutant
Not available.

Snow Depth

Station Depth Elevation

Earthquake Activity

City Distance Mag. Time & Date
Minimum magnitude displayed is 2.5.

Coastal Water Temperatures

Place Temperature

Stations

Nearby Weather Stations

Station Location Temp. Windchill Dew Point Humidity Wind Precip. Elev Updated Type